Ferry Katsuragi — JI3611 — position and weather

sailwx.info

Track history (hours):
 
Tides and Currents Weather Stations Pressure Air Temp Water Temp Dewpoint Dewpoint Depression Visibility Wind Speed Wind Dir Waves Ship Positions

Ferry Katsuragi

Last reported at 2015-Jul-06 00:21 UTC. Time now 2015-Jul-06 00:58 UTC.
Position N 34°09' E 134°54'.

Length 108 m; draft 4 m.

Type: Passenger vessel. MMSI: 431301245.

Date/timePositionNaut miles runAvg speedWind from/ knotsBaromVisibWave heightAir tempDewpointWater temp
2015-Jul-06 00:21N 34°09' E 134°54'1214.7
2015-Jul-05 23:34N 34°13' E 135°08'2 1.9
2015-Jul-05 22:33N 34°13' E 135°06'9 2.2
2015-Jul-05 18:31N 34°09' E 134°56'1111.6
2015-Jul-05 17:33N 34°13' E 135°09'0 0.0
2015-Jul-05 16:33N 34°13' E 135°09'0 0.0
2015-Jul-05 15:33N 34°13' E 135°09'7 6.7
2015-Jul-05 14:33N 34°12' E 135°01'9 2.8
2015-Jul-05 11:21N 34°08' E 134°51'1114.5
2015-Jul-05 10:33N 34°12' E 135°04'4 4.1
2015-Jul-05 09:34N 34°13' E 135°09'21 6.2
2015-Jul-05 06:11N 34°05' E 134°45'1013.8
2015-Jul-05 05:28N 34°09' E 134°56'1112.2
2015-Jul-05 04:33N 34°13' E 135°09'6 6.2
2015-Jul-05 03:33N 34°12' E 135°01'7 2.1
2015-Jul-05 00:22N 34°09' E 134°54'1215.1
2015-Jul-04 23:34N 34°13' E 135°08'3 2.7
2015-Jul-04 22:34N 34°13' E 135°05'18 5.3
2015-Jul-04 19:13N 34°05' E 134°45'1013.7
2015-Jul-04 18:31N 34°09' E 134°56'1111.7
2015-Jul-04 17:33N 34°13' E 135°09'0 0.0
2015-Jul-04 16:33N 34°13' E 135°09'0 0.0
2015-Jul-04 15:33N 34°13' E 135°09'7 6.6
2015-Jul-04 14:33N 34°11' E 135°01'10 3.4
2015-Jul-04 11:27N 34°07' E 134°49'1314.8
2015-Jul-04 10:33N 34°12' E 135°04'4 3.9
2015-Jul-04 09:34N 34°13' E 135°09'20 6.0
2015-Jul-04 06:12N 34°06' E 134°46'913.4
2015-Jul-04 05:31N 34°08' E 134°56'1111.7
2015-Jul-04 04:34N 34°13' E 135°09'7 6.7
2015-Jul-04 03:33N 34°11' E 135°01'7 2.3
2015-Jul-04 00:29N 34°09' E 134°53'1414.7
2015-Jul-03 23:33N 34°13' E 135°08'3 2.8
2015-Jul-03 22:33N 34°13' E 135°05'16 4.6
2015-Jul-03 19:05N 34°06' E 134°47'813.6
2015-Jul-03 18:30N 34°09' E 134°56'1111.6
2015-Jul-03 17:33N 34°13' E 135°09'0 0.0
2015-Jul-03 16:33N 34°13' E 135°09'0 0.0
2015-Jul-03 15:33N 34°13' E 135°09'8 7.1
2015-Jul-03 14:30N 34°11' E 134°60'9 2.9
2015-Jul-03 11:25N 34°08' E 134°50'1214.5
2015-Jul-03 10:33N 34°12' E 135°04'4 3.6
2015-Jul-03 09:34N 34°13' E 135°08'11 2.7
2015-Jul-03 05:32N 34°08' E 134°56'1111.6
2015-Jul-03 04:33N 34°13' E 135°09'7 6.7
2015-Jul-03 03:33N 34°11' E 135°01'5 1.7
2015-Jul-03 00:19N 34°09' E 134°55'1215.3
2015-Jul-02 23:33N 34°13' E 135°08'2 1.9
2015-Jul-02 22:33N 34°13' E 135°06'19 5.8
2015-Jul-02 19:17N 34°05' E 134°45'1113.6
2015-Jul-02 18:26N 34°09' E 134°57'1011.4
2015-Jul-02 17:33N 34°13' E 135°09'0 0.0
2015-Jul-02 16:34N 34°13' E 135°09'0 0.0
2015-Jul-02 15:33N 34°13' E 135°09'6 5.6
2015-Jul-02 14:33N 34°11' E 135°02'11 3.6
2015-Jul-02 11:27N 34°07' E 134°49'1314.4
2015-Jul-02 10:34N 34°12' E 135°04'4 3.8
2015-Jul-02 09:33N 34°13' E 135°08'19 5.5
2015-Jul-02 06:06N 34°07' E 134°46'913.3
2015-Jul-02 05:28N 34°09' E 134°56'1111.9
2015-Jul-02 04:33N 34°13' E 135°09'7 6.9
2015-Jul-02 03:34N 34°12' E 135°00'6 1.9
2015-Jul-02 00:22N 34°08' E 134°54'1215.3
2015-Jul-01 23:33N 34°13' E 135°08'3 2.9
2015-Jul-01 22:33N 34°13' E 135°05'17 5.1
2015-Jul-01 19:09N 34°06' E 134°45'914.3
2015-Jul-01 18:31N 34°08' E 134°56'1212.2
2015-Jul-01 17:34N 34°13' E 135°09'0 0.0
2015-Jul-01 16:33N 34°13' E 135°09'0 0.0
2015-Jul-01 15:34N 34°13' E 135°09'7 7.0
2015-Jul-01 14:33N 34°11' E 135°01'12 3.9
2015-Jul-01 11:33N 34°06' E 134°48'1514.7
2015-Jul-01 10:33N 34°11' E 135°04'4 4.1
2015-Jul-01 09:34N 34°13' E 135°09'20 1.4
2015-Jun-30 19:11N 34°06' E 134°46'913.7
2015-Jun-30 18:32N 34°08' E 134°56'1111.8
2015-Jun-30 17:33N 34°13' E 135°09'0 0.0
2015-Jun-30 16:33N 34°13' E 135°09'0 0.0
2015-Jun-30 15:33N 34°13' E 135°09'7 6.9
2015-Jun-30 14:33N 34°10' E 135°01'10 3.4
2015-Jun-30 11:31N 34°08' E 134°49'1313.9
2015-Jun-30 10:33N 34°12' E 135°04'4 3.9
2015-Jun-30 09:33N 34°13' E 135°09'11 2.8
2015-Jun-30 05:32N 34°09' E 134°56'1111.6
2015-Jun-30 04:34N 34°13' E 135°09'7 6.8
2015-Jun-30 03:33N 34°11' E 135°01'7 2.3
2015-Jun-30 00:27N 34°08' E 134°53'1415.3
2015-Jun-29 23:34N 34°13' E 135°08'2 2.2
2015-Jun-29 22:33N 34°13' E 135°05'18 5.4
2015-Jun-29 19:12N 34°06' E 134°46'913.4
2015-Jun-29 18:33N 34°09' E 134°56'1211.6
2015-Jun-29 17:33N 34°13' E 135°09'0 0.0
2015-Jun-29 16:34N 34°13' E 135°09'0 0.0
2015-Jun-29 15:33N 34°13' E 135°09'6 6.2
2015-Jun-29 14:34N 34°11' E 135°02'11 3.5
2015-Jun-29 11:27N 34°08' E 134°49'1314.6
2015-Jun-29 10:33N 34°12' E 135°04'4 4.0
2015-Jun-29 09:34N 34°13' E 135°09'9 2.2
2015-Jun-29 05:23N 34°10' E 134°58'911.2
2015-Jun-29 04:33N 34°13' E 135°09'7 7.3
2015-Jun-29 03:33N 34°10' E 135°00'3 1.0
2015-Jun-29 00:14N 34°10' E 134°56'1014.9
2015-Jun-28 23:34N 34°13' E 135°08'2 1.8
2015-Jun-28 22:33N 34°13' E 135°06'18 5.5
2015-Jun-28 19:13N 34°06' E 134°45'1013.7
2015-Jun-28 18:27N 34°09' E 134°57'1011.5
2015-Jun-28 17:33N 34°13' E 135°09'0 0.0
2015-Jun-28 16:33N 34°13' E 135°09'0 0.0
2015-Jun-28 15:33N 34°13' E 135°09'7 7.3
2015-Jun-28 14:33N 34°10' E 135°01'9 2.8
2015-Jun-28 11:23N 34°08' E 134°50'1214.5
2015-Jun-28 10:33N 34°12' E 135°04'4 4.2
2015-Jun-28 09:33N 34°13' E 135°09'20 5.9
2015-Jun-28 06:07N 34°06' E 134°46'1014.1
2015-Jun-28 05:23N 34°10' E 134°57'1011.9
2015-Jun-28 04:33N 34°13' E 135°09'7 6.6
2015-Jun-28 03:33N 34°11' E 135°01'3 1.0
2015-Jun-28 00:11N 34°10' E 134°57'915.1
2015-Jun-27 23:33N 34°13' E 135°08'1 1.4
2015-Jun-27 22:33N 34°13' E 135°06'8 1.9
2015-Jun-27 18:26N 34°10' E 134°57'1011.5
2015-Jun-27 17:34N 34°13' E 135°09'0 0.0
2015-Jun-27 16:34N 34°13' E 135°09'0 0.0
2015-Jun-27 15:34N 34°13' E 135°09'6 6.4
2015-Jun-27 14:33N 34°12' E 135°01'2 0.5
2015-Jun-27 10:33N 34°12' E 135°04'4 4.2
2015-Jun-27 09:33N 34°13' E 135°09'21 6.0
2015-Jun-27 06:09N 34°06' E 134°45'1014.0
2015-Jun-27 05:26N 34°09' E 134°57'1011.9
2015-Jun-27 04:33N 34°13' E 135°09'7 6.6
2015-Jun-27 03:33N 34°11' E 135°01'7 2.1
2015-Jun-27 00:24N 34°08' E 134°54'1315.3
2015-Jun-26 23:33N 34°13' E 135°08'2 2.0
2015-Jun-26 22:33N 34°12' E 135°06'10 2.4
2015-Jun-26 18:33N 34°07' E 134°56'1212.0
2015-Jun-26 17:34N 34°13' E 135°09'0 0.0
2015-Jun-26 16:34N 34°13' E 135°09'0 0.0
2015-Jun-26 15:34N 34°13' E 135°09'5 5.3
2015-Jun-26 14:33N 34°11' E 135°03'12 4.1
2015-Jun-26 11:33N 34°07' E 134°49'1414.0
2015-Jun-26 10:33N 34°12' E 135°04'4 3.7
2015-Jun-26 09:33N 34°13' E 135°09'21 6.2
2015-Jun-26 06:12N 34°05' E 134°45'914.2
2015-Jun-26 05:33N 34°09' E 134°55'1211.8
2015-Jun-26 04:33N 34°13' E 135°09'6 6.4
2015-Jun-26 03:33N 34°11' E 135°01'  
Track history (hours):
 
Tides and Currents Weather Stations Pressure Air Temp Water Temp Dewpoint Dewpoint Depression Visibility Wind Speed Wind Dir Waves Ship Positions

Ferry Katsuragi

Last reported at 2015-Jul-06 00:21 UTC. Time now 2015-Jul-06 00:58 UTC.
Position N 34°09' E 134°54'.

Length 108 m; draft 4 m.

Type: Passenger vessel. MMSI: 431301245.

Date/timePositionNaut miles runAvg speedWind from/ knotsBaromVisibWave heightAir tempDewpointWater temp
2015-Jul-06 00:21N 34°09' E 134°54'1214.7
2015-Jul-05 23:34N 34°13' E 135°08'2 1.9
2015-Jul-05 22:33N 34°13' E 135°06'9 2.2
2015-Jul-05 18:31N 34°09' E 134°56'1111.6
2015-Jul-05 17:33N 34°13' E 135°09'0 0.0
2015-Jul-05 16:33N 34°13' E 135°09'0 0.0
2015-Jul-05 15:33N 34°13' E 135°09'7 6.7
2015-Jul-05 14:33N 34°12' E 135°01'9 2.8
2015-Jul-05 11:21N 34°08' E 134°51'1114.5
2015-Jul-05 10:33N 34°12' E 135°04'4 4.1
2015-Jul-05 09:34N 34°13' E 135°09'21 6.2
2015-Jul-05 06:11N 34°05' E 134°45'1013.8
2015-Jul-05 05:28N 34°09' E 134°56'1112.2
2015-Jul-05 04:33N 34°13' E 135°09'6 6.2
2015-Jul-05 03:33N 34°12' E 135°01'7 2.1
2015-Jul-05 00:22N 34°09' E 134°54'1215.1
2015-Jul-04 23:34N 34°13' E 135°08'3 2.7
2015-Jul-04 22:34N 34°13' E 135°05'18 5.3
2015-Jul-04 19:13N 34°05' E 134°45'1013.7
2015-Jul-04 18:31N 34°09' E 134°56'1111.7
2015-Jul-04 17:33N 34°13' E 135°09'0 0.0
2015-Jul-04 16:33N 34°13' E 135°09'0 0.0
2015-Jul-04 15:33N 34°13' E 135°09'7 6.6
2015-Jul-04 14:33N 34°11' E 135°01'10 3.4
2015-Jul-04 11:27N 34°07' E 134°49'1314.8
2015-Jul-04 10:33N 34°12' E 135°04'4 3.9
2015-Jul-04 09:34N 34°13' E 135°09'20 6.0
2015-Jul-04 06:12N 34°06' E 134°46'913.4
2015-Jul-04 05:31N 34°08' E 134°56'1111.7
2015-Jul-04 04:34N 34°13' E 135°09'7 6.7
2015-Jul-04 03:33N 34°11' E 135°01'7 2.3
2015-Jul-04 00:29N 34°09' E 134°53'1414.7
2015-Jul-03 23:33N 34°13' E 135°08'3 2.8
2015-Jul-03 22:33N 34°13' E 135°05'16 4.6
2015-Jul-03 19:05N 34°06' E 134°47'813.6
2015-Jul-03 18:30N 34°09' E 134°56'1111.6
2015-Jul-03 17:33N 34°13' E 135°09'0 0.0
2015-Jul-03 16:33N 34°13' E 135°09'0 0.0
2015-Jul-03 15:33N 34°13' E 135°09'8 7.1
2015-Jul-03 14:30N 34°11' E 134°60'9 2.9
2015-Jul-03 11:25N 34°08' E 134°50'1214.5
2015-Jul-03 10:33N 34°12' E 135°04'4 3.6
2015-Jul-03 09:34N 34°13' E 135°08'11 2.7
2015-Jul-03 05:32N 34°08' E 134°56'1111.6
2015-Jul-03 04:33N 34°13' E 135°09'7 6.7
2015-Jul-03 03:33N 34°11' E 135°01'5 1.7
2015-Jul-03 00:19N 34°09' E 134°55'1215.3
2015-Jul-02 23:33N 34°13' E 135°08'2 1.9
2015-Jul-02 22:33N 34°13' E 135°06'19 5.8
2015-Jul-02 19:17N 34°05' E 134°45'1113.6
2015-Jul-02 18:26N 34°09' E 134°57'1011.4
2015-Jul-02 17:33N 34°13' E 135°09'0 0.0
2015-Jul-02 16:34N 34°13' E 135°09'0 0.0
2015-Jul-02 15:33N 34°13' E 135°09'6 5.6
2015-Jul-02 14:33N 34°11' E 135°02'11 3.6
2015-Jul-02 11:27N 34°07' E 134°49'1314.4
2015-Jul-02 10:34N 34°12' E 135°04'4 3.8
2015-Jul-02 09:33N 34°13' E 135°08'19 5.5
2015-Jul-02 06:06N 34°07' E 134°46'913.3
2015-Jul-02 05:28N 34°09' E 134°56'1111.9
2015-Jul-02 04:33N 34°13' E 135°09'7 6.9
2015-Jul-02 03:34N 34°12' E 135°00'6 1.9
2015-Jul-02 00:22N 34°08' E 134°54'1215.3
2015-Jul-01 23:33N 34°13' E 135°08'3 2.9
2015-Jul-01 22:33N 34°13' E 135°05'17 5.1
2015-Jul-01 19:09N 34°06' E 134°45'914.3
2015-Jul-01 18:31N 34°08' E 134°56'1212.2
2015-Jul-01 17:34N 34°13' E 135°09'0 0.0
2015-Jul-01 16:33N 34°13' E 135°09'0 0.0
2015-Jul-01 15:34N 34°13' E 135°09'7 7.0
2015-Jul-01 14:33N 34°11' E 135°01'12 3.9
2015-Jul-01 11:33N 34°06' E 134°48'1514.7
2015-Jul-01 10:33N 34°11' E 135°04'4 4.1
2015-Jul-01 09:34N 34°13' E 135°09'20 1.4
2015-Jun-30 19:11N 34°06' E 134°46'913.7
2015-Jun-30 18:32N 34°08' E 134°56'1111.8
2015-Jun-30 17:33N 34°13' E 135°09'0 0.0
2015-Jun-30 16:33N 34°13' E 135°09'0 0.0
2015-Jun-30 15:33N 34°13' E 135°09'7 6.9
2015-Jun-30 14:33N 34°10' E 135°01'10 3.4
2015-Jun-30 11:31N 34°08' E 134°49'1313.9
2015-Jun-30 10:33N 34°12' E 135°04'4 3.9
2015-Jun-30 09:33N 34°13' E 135°09'11 2.8
2015-Jun-30 05:32N 34°09' E 134°56'1111.6
2015-Jun-30 04:34N 34°13' E 135°09'7 6.8
2015-Jun-30 03:33N 34°11' E 135°01'7 2.3
2015-Jun-30 00:27N 34°08' E 134°53'1415.3
2015-Jun-29 23:34N 34°13' E 135°08'2 2.2
2015-Jun-29 22:33N 34°13' E 135°05'18 5.4
2015-Jun-29 19:12N 34°06' E 134°46'913.4
2015-Jun-29 18:33N 34°09' E 134°56'1211.6
2015-Jun-29 17:33N 34°13' E 135°09'0 0.0
2015-Jun-29 16:34N 34°13' E 135°09'0 0.0
2015-Jun-29 15:33N 34°13' E 135°09'6 6.2
2015-Jun-29 14:34N 34°11' E 135°02'11 3.5
2015-Jun-29 11:27N 34°08' E 134°49'1314.6
2015-Jun-29 10:33N 34°12' E 135°04'4 4.0
2015-Jun-29 09:34N 34°13' E 135°09'9 2.2
2015-Jun-29 05:23N 34°10' E 134°58'911.2
2015-Jun-29 04:33N 34°13' E 135°09'7 7.3
2015-Jun-29 03:33N 34°10' E 135°00'3 1.0
2015-Jun-29 00:14N 34°10' E 134°56'1014.9
2015-Jun-28 23:34N 34°13' E 135°08'2 1.8
2015-Jun-28 22:33N 34°13' E 135°06'18 5.5
2015-Jun-28 19:13N 34°06' E 134°45'1013.7
2015-Jun-28 18:27N 34°09' E 134°57'1011.5
2015-Jun-28 17:33N 34°13' E 135°09'0 0.0
2015-Jun-28 16:33N 34°13' E 135°09'0 0.0
2015-Jun-28 15:33N 34°13' E 135°09'7 7.3
2015-Jun-28 14:33N 34°10' E 135°01'9 2.8
2015-Jun-28 11:23N 34°08' E 134°50'1214.5
2015-Jun-28 10:33N 34°12' E 135°04'4 4.2
2015-Jun-28 09:33N 34°13' E 135°09'20 5.9
2015-Jun-28 06:07N 34°06' E 134°46'1014.1
2015-Jun-28 05:23N 34°10' E 134°57'1011.9
2015-Jun-28 04:33N 34°13' E 135°09'7 6.6
2015-Jun-28 03:33N 34°11' E 135°01'3 1.0
2015-Jun-28 00:11N 34°10' E 134°57'915.1
2015-Jun-27 23:33N 34°13' E 135°08'1 1.4
2015-Jun-27 22:33N 34°13' E 135°06'8 1.9
2015-Jun-27 18:26N 34°10' E 134°57'1011.5
2015-Jun-27 17:34N 34°13' E 135°09'0 0.0
2015-Jun-27 16:34N 34°13' E 135°09'0 0.0
2015-Jun-27 15:34N 34°13' E 135°09'6 6.4
2015-Jun-27 14:33N 34°12' E 135°01'2 0.5
2015-Jun-27 10:33N 34°12' E 135°04'4 4.2
2015-Jun-27 09:33N 34°13' E 135°09'21 6.0
2015-Jun-27 06:09N 34°06' E 134°45'1014.0
2015-Jun-27 05:26N 34°09' E 134°57'1011.9
2015-Jun-27 04:33N 34°13' E 135°09'7 6.6
2015-Jun-27 03:33N 34°11' E 135°01'7 2.1
2015-Jun-27 00:24N 34°08' E 134°54'1315.3
2015-Jun-26 23:33N 34°13' E 135°08'2 2.0
2015-Jun-26 22:33N 34°12' E 135°06'10 2.4
2015-Jun-26 18:33N 34°07' E 134°56'1212.0
2015-Jun-26 17:34N 34°13' E 135°09'0 0.0
2015-Jun-26 16:34N 34°13' E 135°09'0 0.0
2015-Jun-26 15:34N 34°13' E 135°09'5 5.3
2015-Jun-26 14:33N 34°11' E 135°03'12 4.1
2015-Jun-26 11:33N 34°07' E 134°49'1414.0
2015-Jun-26 10:33N 34°12' E 135°04'4 3.7
2015-Jun-26 09:33N 34°13' E 135°09'21 6.2
2015-Jun-26 06:12N 34°05' E 134°45'914.2
2015-Jun-26 05:33N 34°09' E 134°55'1211.8
2015-Jun-26 04:33N 34°13' E 135°09'6 6.4
2015-Jun-26 03:33N 34°11' E 135°01'  

Dump ship's entire track history